Sand Hill, Missouri
Current Conditions -  °F | °C
As of 9:55 PM on Tuesday 21 Oct 2014 (Local Time) from KIRK Reporting Station
Clear Clear  
Wind Chill: 47°   Ceiling: Unl
Heat Index: 49°   Visibility: 10mi
Dew Point: 42°   Wind: 6mph
Humidity: 77%   Direction: 90°E
Pressure: 30.19"   Gusts: NA
Location:  40.3469°N, 92.1083°W
Report Text: KIRK 220255Z AUTO 09005KT 10SM CLR 09/06 A3019 RMK AO2 SLP227 T00940056 53013
Loading
Personal Weather Stations






























Interactive Weather Map
Tropical Storm Tracking
New forecast layout! Learn more

10-Day Weather Forecast

Advertisements
Track Severe Weather on mobile